Time;durP1;ratioP1;P1;durP2;ratioP2;P2;SDS_P1;SDS_P2;PMS_P1;PMS_P2;Temp;Humidity;BMP_temperature;BMP_pressure;BME280_temperature;BME280_humidity;BME280_pressure;Samples;Min_cycle;Max_cycle;Signal;HPM_P1;HPM_P2
2024/01/29 00:00:53;;;;;;;12.68;7.20;;;-1.30;99.90;;;;;;4940594;28;20443;-64
2024/01/29 00:03:18;;;;;;;12.13;7.05;;;-1.20;99.90;;;;;;4945873;28;20016;-63
2024/01/29 00:05:45;;;;;;;13.05;6.60;;;-1.20;99.90;;;;;;4942537;28;20031;-62
2024/01/29 00:08:11;;;;;;;13.02;6.90;;;-1.00;99.90;;;;;;4945411;28;20038;-63
2024/01/29 00:10:37;;;;;;;8.75;6.07;;;-0.90;99.90;;;;;;4948391;28;20015;-63
2024/01/29 00:13:02;;;;;;;10.50;6.82;;;-0.90;99.90;;;;;;4943951;28;20035;-64
2024/01/29 00:15:28;;;;;;;7.97;6.28;;;-0.90;99.90;;;;;;4941442;28;20399;-64
2024/01/29 00:17:54;;;;;;;8.57;6.68;;;-0.90;99.90;;;;;;4941643;28;20115;-61
2024/01/29 00:20:19;;;;;;;10.50;6.47;;;-0.90;99.90;;;;;;4946332;28;20028;-63
2024/01/29 00:22:45;;;;;;;9.70;7.20;;;-1.00;99.90;;;;;;4948877;28;20090;-63
2024/01/29 00:25:11;;;;;;;9.70;6.00;;;-1.00;99.90;;;;;;4949469;28;20550;-63
2024/01/29 00:27:37;;;;;;;8.32;5.97;;;-1.00;99.90;;;;;;4947103;28;20035;-63
2024/01/29 00:30:02;;;;;;;8.38;6.75;;;-1.10;99.90;;;;;;4947630;28;20089;-63
2024/01/29 00:32:29;;;;;;;12.50;6.18;;;-1.10;99.90;;;;;;4948590;28;20043;-63
2024/01/29 00:34:55;;;;;;;8.23;6.10;;;-1.10;99.90;;;;;;4944146;29;20020;-63
2024/01/29 00:37:22;;;;;;;10.10;6.57;;;-1.00;99.90;;;;;;4946222;28;20442;-62
2024/01/29 00:39:49;;;;;;;9.13;6.13;;;-1.00;99.90;;;;;;4944530;28;20027;-63
2024/01/29 00:42:15;;;;;;;11.50;6.50;;;-0.90;99.90;;;;;;4937908;28;20031;-61
2024/01/29 00:44:42;;;;;;;8.70;5.78;;;-0.90;99.90;;;;;;4949799;28;20031;-63
2024/01/29 00:47:09;;;;;;;10.13;6.45;;;-0.90;99.90;;;;;;4944242;28;20371;-65
2024/01/29 00:49:35;;;;;;;14.93;7.25;;;-0.90;99.90;;;;;;4943791;28;20016;-63
2024/01/29 00:52:02;;;;;;;9.98;6.53;;;-1.00;99.90;;;;;;4942993;28;20939;-63
2024/01/29 00:54:28;;;;;;;11.27;6.60;;;-1.00;99.90;;;;;;4945082;28;20106;-63
2024/01/29 00:56:53;;;;;;;8.82;6.25;;;-1.00;99.90;;;;;;4943935;28;20507;-63
2024/01/29 00:59:19;;;;;;;9.57;5.70;;;-0.90;99.90;;;;;;4941745;28;20815;-62
2024/01/29 01:01:45;;;;;;;10.48;6.50;;;-0.90;99.90;;;;;;4943267;28;20020;-63
2024/01/29 01:04:10;;;;;;;8.32;5.53;;;-0.90;99.90;;;;;;4949745;28;20035;-63
2024/01/29 01:06:36;;;;;;;11.15;6.25;;;-0.90;99.90;;;;;;4949138;28;20023;-64
2024/01/29 01:09:02;;;;;;;11.55;7.68;;;-0.90;99.90;;;;;;4948828;28;20387;-65
2024/01/29 01:11:28;;;;;;;11.85;6.57;;;-0.90;99.90;;;;;;4949938;28;20028;-62
2024/01/29 01:13:54;;;;;;;8.10;5.90;;;-0.90;99.90;;;;;;4950812;28;20035;-63
2024/01/29 01:16:19;;;;;;;10.68;6.50;;;-0.90;99.90;;;;;;4948967;28;20115;-64
2024/01/29 01:18:45;;;;;;;8.13;5.28;;;-0.90;99.90;;;;;;4952342;28;20114;-64
2024/01/29 01:21:11;;;;;;;8.98;6.22;;;-0.90;99.90;;;;;;4953797;28;20842;-63
2024/01/29 01:23:37;;;;;;;6.90;5.22;;;-1.00;99.90;;;;;;4954361;28;20031;-63
2024/01/29 01:26:02;;;;;;;8.85;5.25;;;-1.00;99.90;;;;;;4951432;28;20459;-64
2024/01/29 01:28:28;;;;;;;15.65;5.95;;;-1.00;99.90;;;;;;4950496;28;20027;-62
2024/01/29 01:30:54;;;;;;;9.23;6.03;;;-0.90;99.90;;;;;;4952699;28;20027;-63
2024/01/29 01:33:20;;;;;;;8.35;6.38;;;-0.80;99.90;;;;;;4953385;28;20201;-63
2024/01/29 01:35:45;;;;;;;13.13;7.82;;;-0.80;99.90;;;;;;4951297;28;20510;-63
2024/01/29 01:38:11;;;;;;;10.52;7.70;;;-0.90;99.90;;;;;;4963588;28;20032;-63
2024/01/29 01:40:36;;;;;;;10.35;6.32;;;-1.00;99.90;;;;;;4950917;28;20598;-62
2024/01/29 01:43:20;;;;;;;7.80;5.82;;;-1.00;99.90;;;;;;4947564;28;20122;-64
2024/01/29 01:46:04;;;;;;;9.57;6.88;;;-0.90;99.90;;;;;;4951560;28;20041;-64
2024/01/29 01:48:34;;;;;;;11.02;6.15;;;-0.80;99.90;;;;;;4950827;28;20042;-63
2024/01/29 01:51:00;;;;;;;7.70;5.15;;;-0.70;99.90;;;;;;4944724;28;20051;-63
2024/01/29 01:53:30;;;;;;;8.20;5.15;;;-0.80;99.90;;;;;;4943777;28;20039;-64
2024/01/29 01:55:56;;;;;;;8.60;6.22;;;-0.90;99.90;;;;;;4945343;28;20033;-63
2024/01/29 01:58:24;;;;;;;8.55;6.18;;;-1.00;99.90;;;;;;4949626;28;20113;-63
2024/01/29 02:00:49;;;;;;;9.95;7.35;;;-1.10;99.90;;;;;;4948691;28;20515;-65
2024/01/29 02:03:15;;;;;;;10.93;7.38;;;-1.20;99.90;;;;;;4949334;28;20051;-61
2024/01/29 02:05:41;;;;;;;14.10;7.78;;;-1.40;99.90;;;;;;4949827;28;20039;-63
2024/01/29 02:08:09;;;;;;;12.40;7.03;;;-1.50;99.90;;;;;;4947560;28;20522;-64
2024/01/29 02:10:35;;;;;;;15.07;7.82;;;-1.60;99.90;;;;;;4950894;28;20114;-61
2024/01/29 02:13:01;;;;;;;12.93;5.85;;;-1.70;99.90;;;;;;4952342;28;20154;-63
2024/01/29 02:15:26;;;;;;;9.45;6.18;;;-1.70;99.90;;;;;;4949212;28;20407;-63
2024/01/29 02:17:52;;;;;;;9.43;5.90;;;-1.80;99.90;;;;;;4946069;28;20035;-64
2024/01/29 02:20:19;;;;;;;9.23;6.13;;;-1.90;99.90;;;;;;4943173;28;20051;-64
2024/01/29 02:22:45;;;;;;;8.80;5.82;;;-1.90;99.90;;;;;;4952423;28;20027;-63
2024/01/29 02:25:12;;;;;;;8.02;6.22;;;-1.90;99.90;;;;;;4952390;28;20027;-64
2024/01/29 02:27:38;;;;;;;7.63;5.80;;;-2.00;99.90;;;;;;4950177;28;20078;-62
2024/01/29 02:30:05;;;;;;;9.95;6.78;;;-2.00;99.90;;;;;;4952619;28;20054;-63
2024/01/29 02:32:31;;;;;;;9.02;5.65;;;-2.10;99.90;;;;;;4953922;28;20035;-63
2024/01/29 02:34:57;;;;;;;9.40;5.93;;;-2.10;99.90;;;;;;4952253;28;20077;-63
2024/01/29 02:37:22;;;;;;;7.13;5.53;;;-2.10;99.90;;;;;;4950299;28;20039;-64
2024/01/29 02:39:50;;;;;;;7.50;5.22;;;-2.20;99.90;;;;;;4951256;28;20448;-62
2024/01/29 02:42:19;;;;;;;9.57;6.53;;;-2.20;99.90;;;;;;4952661;28;20041;-62
2024/01/29 02:44:46;;;;;;;9.75;5.35;;;-2.20;99.90;;;;;;4950251;28;20035;-63
2024/01/29 02:47:11;;;;;;;9.95;6.72;;;-2.30;99.90;;;;;;4952726;28;20415;-66
2024/01/29 02:49:37;;;;;;;10.77;5.70;;;-2.30;99.90;;;;;;4951343;28;20023;-63
2024/01/29 02:52:04;;;;;;;9.52;5.53;;;-2.40;99.90;;;;;;4947130;28;20503;-64
2024/01/29 02:54:29;;;;;;;10.30;6.03;;;-2.40;99.90;;;;;;4953028;28;20043;-63
2024/01/29 02:56:55;;;;;;;10.52;5.80;;;-2.30;99.90;;;;;;4948349;28;20110;-64
2024/01/29 02:59:21;;;;;;;14.88;6.88;;;-2.40;99.90;;;;;;4950105;28;20038;-62
2024/01/29 03:01:46;;;;;;;10.35;5.55;;;-2.40;99.90;;;;;;4953741;28;20023;-63
2024/01/29 03:04:12;;;;;;;8.63;5.75;;;-2.30;99.90;;;;;;4952082;28;20118;-62
2024/01/29 03:06:37;;;;;;;7.18;4.72;;;-2.30;99.90;;;;;;4949213;28;20023;-63
2024/01/29 03:09:03;;;;;;;10.32;6.00;;;-2.20;99.90;;;;;;4950985;28;20391;-64
2024/01/29 03:11:29;;;;;;;9.35;4.60;;;-2.20;99.90;;;;;;4948159;28;20090;-62
2024/01/29 03:13:55;;;;;;;8.52;5.45;;;-2.10;99.90;;;;;;4947572;28;20447;-64
2024/01/29 03:16:20;;;;;;;9.55;5.55;;;-1.90;99.90;;;;;;4951067;28;20028;-62
2024/01/29 03:18:46;;;;;;;7.22;5.50;;;-1.80;99.90;;;;;;4949158;28;20537;-63
2024/01/29 03:21:13;;;;;;;9.20;6.13;;;-1.70;99.90;;;;;;4945116;28;20513;-64
2024/01/29 03:23:39;;;;;;;10.43;5.65;;;-1.70;99.90;;;;;;4948456;28;20023;-63
2024/01/29 03:26:04;;;;;;;10.10;5.07;;;-1.60;99.90;;;;;;4948532;28;20032;-63
2024/01/29 03:28:30;;;;;;;18.52;6.13;;;-1.60;99.90;;;;;;4944231;28;20027;-63
2024/01/29 03:30:56;;;;;;;7.45;6.20;;;-1.60;99.90;;;;;;4945487;28;20503;-62
2024/01/29 03:33:21;;;;;;;6.75;4.80;;;-1.60;99.90;;;;;;4947956;28;20047;-63
2024/01/29 03:35:47;;;;;;;7.32;5.82;;;-1.50;99.90;;;;;;4949545;28;20050;-63
2024/01/29 03:38:12;;;;;;;10.75;5.10;;;-1.50;99.90;;;;;;4949533;28;20031;-64
2024/01/29 03:40:38;;;;;;;6.78;4.88;;;-1.50;99.90;;;;;;4953142;28;20023;-64
2024/01/29 03:43:04;;;;;;;8.60;5.13;;;-1.40;99.90;;;;;;4947917;28;20147;-62
2024/01/29 03:45:29;;;;;;;7.57;4.97;;;-1.40;99.90;;;;;;4943677;28;20054;-63
2024/01/29 03:47:55;;;;;;;7.22;5.85;;;-1.40;99.90;;;;;;4947551;28;20038;-63
2024/01/29 03:50:20;;;;;;;8.23;5.55;;;-1.40;99.90;;;;;;4947144;28;20395;-63
2024/01/29 03:52:47;;;;;;;11.50;5.25;;;-1.50;99.90;;;;;;4947497;28;20039;-63
2024/01/29 03:55:13;;;;;;;7.32;5.25;;;-1.50;99.90;;;;;;4947186;28;20026;-64
2024/01/29 03:57:39;;;;;;;10.68;5.72;;;-1.60;99.90;;;;;;4945801;28;20128;-63
2024/01/29 04:00:09;;;;;;;8.18;5.63;;;-1.60;99.90;;;;;;4953546;28;20468;-64
2024/01/29 04:02:34;;;;;;;7.53;5.10;;;-1.60;99.90;;;;;;4951221;28;20483;-63
2024/01/29 04:05:00;;;;;;;10.90;5.55;;;-1.50;99.90;;;;;;4950751;28;20030;-61
2024/01/29 04:07:27;;;;;;;8.90;5.80;;;-1.60;99.90;;;;;;4952932;28;20030;-63
2024/01/29 04:09:53;;;;;;;8.63;5.22;;;-1.50;99.90;;;;;;4952517;28;20514;-63
2024/01/29 04:12:18;;;;;;;13.18;7.65;;;-1.60;99.90;;;;;;4953395;28;20028;-63
2024/01/29 04:14:44;;;;;;;9.95;7.05;;;-1.60;99.90;;;;;;4948008;28;20031;-63
2024/01/29 04:17:12;;;;;;;10.48;7.35;;;-1.70;99.90;;;;;;4952230;28;20020;-64
2024/01/29 04:19:38;;;;;;;10.55;6.97;;;-1.80;99.90;;;;;;4947832;28;20023;-62
2024/01/29 04:22:04;;;;;;;9.32;7.03;;;-1.80;99.90;;;;;;4947924;28;20604;-63
2024/01/29 04:24:30;;;;;;;9.75;6.20;;;-1.80;99.90;;;;;;4947908;28;20515;-63
2024/01/29 04:26:56;;;;;;;11.80;6.03;;;-1.80;99.90;;;;;;4947537;28;20098;-62
2024/01/29 04:29:22;;;;;;;8.18;5.50;;;-1.80;99.90;;;;;;4952051;28;20035;-62
2024/01/29 04:31:48;;;;;;;10.48;6.20;;;-1.80;99.90;;;;;;4947576;28;20034;-63
2024/01/29 04:34:14;;;;;;;8.63;5.18;;;-1.80;99.90;;;;;;4945150;28;20252;-63
2024/01/29 04:36:39;;;;;;;9.32;6.18;;;-1.90;99.90;;;;;;4949148;28;20792;-62
2024/01/29 04:39:05;;;;;;;8.63;6.53;;;-1.90;99.90;;;;;;4947164;28;20039;-62
2024/01/29 04:41:31;;;;;;;12.68;6.88;;;-1.90;99.90;;;;;;4949989;28;20031;-64
2024/01/29 04:43:56;;;;;;;12.57;7.35;;;-1.90;99.90;;;;;;4951028;28;20912;-60
2024/01/29 04:46:23;;;;;;;10.50;7.63;;;-1.90;99.90;;;;;;4941352;28;20035;-62
2024/01/29 04:48:49;;;;;;;8.77;5.72;;;-1.90;99.90;;;;;;4948046;28;20062;-62
2024/01/29 04:51:15;;;;;;;10.27;7.22;;;-1.80;99.90;;;;;;4946631;28;20499;-63
2024/01/29 04:53:41;;;;;;;8.02;6.25;;;-1.80;99.90;;;;;;4946975;28;20114;-63
2024/01/29 04:56:07;;;;;;;9.82;7.60;;;-1.80;99.90;;;;;;4946904;28;20050;-63
2024/01/29 04:58:33;;;;;;;8.20;5.72;;;-1.80;99.90;;;;;;4948543;28;20666;-63
2024/01/29 05:01:01;;;;;;;10.70;6.30;;;-1.90;99.90;;;;;;4950487;28;20131;-62
2024/01/29 05:03:27;;;;;;;10.32;6.50;;;-1.90;99.90;;;;;;4950594;28;20036;-64
2024/01/29 05:05:53;;;;;;;10.55;5.15;;;-1.90;99.90;;;;;;4947848;28;20027;-62
2024/01/29 05:08:19;;;;;;;9.88;5.78;;;-1.90;99.90;;;;;;4949447;28;20143;-62
2024/01/29 05:10:45;;;;;;;8.65;4.88;;;-1.90;99.90;;;;;;4952058;28;20102;-62
2024/01/29 05:13:11;;;;;;;10.38;6.18;;;-1.90;99.90;;;;;;4946016;28;20039;-63
2024/01/29 05:15:37;;;;;;;12.02;4.82;;;-1.90;99.90;;;;;;4945242;29;20035;-63
2024/01/29 05:18:03;;;;;;;5.47;4.43;;;-1.90;99.90;;;;;;4949431;28;20506;-65
2024/01/29 05:20:32;;;;;;;7.50;5.32;;;-1.80;99.90;;;;;;4944655;28;20035;-63
2024/01/29 05:22:57;;;;;;;9.43;5.20;;;-1.80;99.90;;;;;;4944294;28;20503;-64
2024/01/29 05:25:23;;;;;;;9.88;5.63;;;-1.80;99.90;;;;;;4948257;28;20031;-63
2024/01/29 05:27:49;;;;;;;5.75;4.45;;;-1.70;99.90;;;;;;4948371;28;20102;-63
2024/01/29 05:30:15;;;;;;;12.30;5.47;;;-1.60;99.90;;;;;;4947178;28;20019;-65
2024/01/29 05:32:41;;;;;;;7.70;5.40;;;-1.50;99.90;;;;;;4952247;28;20407;-64
2024/01/29 05:35:07;;;;;;;8.60;5.35;;;-1.50;99.90;;;;;;4951075;28;20020;-61
2024/01/29 05:37:34;;;;;;;7.00;5.85;;;-1.50;99.90;;;;;;4952765;28;20101;-63
2024/01/29 05:40:09;;;;;;;8.95;5.45;;;-1.40;99.90;;;;;;4946777;28;20035;-62
2024/01/29 05:42:34;;;;;;;9.15;5.70;;;-1.40;99.90;;;;;;4946498;28;20035;-63
2024/01/29 05:45:00;;;;;;;8.25;5.20;;;-1.40;99.90;;;;;;4954998;28;20046;-63
2024/01/29 05:47:26;;;;;;;13.43;6.07;;;-1.40;99.90;;;;;;4951653;28;20038;-64
2024/01/29 05:49:51;;;;;;;10.80;7.88;;;-1.30;99.90;;;;;;4954035;28;20031;-62
2024/01/29 05:52:17;;;;;;;14.48;7.63;;;-1.30;99.90;;;;;;4946733;28;20208;-64
2024/01/29 05:54:43;;;;;;;15.40;7.50;;;-1.40;99.90;;;;;;4946391;28;20542;-63
2024/01/29 05:57:11;;;;;;;12.55;7.82;;;-1.40;99.90;;;;;;4948043;28;20134;-63
2024/01/29 05:59:41;;;;;;;10.10;6.15;;;-1.40;99.90;;;;;;4949601;28;20419;-61
2024/01/29 06:02:07;;;;;;;10.48;6.57;;;-1.40;99.90;;;;;;4948742;28;20031;-63
2024/01/29 06:04:33;;;;;;;9.27;5.65;;;-1.40;99.90;;;;;;4951833;28;20019;-63
2024/01/29 06:06:59;;;;;;;11.82;6.68;;;-1.40;99.90;;;;;;4947723;28;20033;-62
2024/01/29 06:09:24;;;;;;;10.00;5.80;;;-1.40;99.90;;;;;;4946402;28;20114;-60
2024/01/29 06:11:50;;;;;;;6.78;5.15;;;-1.40;99.90;;;;;;4948428;28;20083;-63
2024/01/29 06:14:16;;;;;;;10.80;6.53;;;-1.30;99.90;;;;;;4950217;28;20408;-61
2024/01/29 06:16:45;;;;;;;10.70;5.78;;;-1.30;99.90;;;;;;4949959;29;20019;-61
2024/01/29 06:19:15;;;;;;;8.60;5.55;;;-1.30;99.90;;;;;;4951459;28;20028;-61
2024/01/29 06:21:48;;;;;;;10.87;5.90;;;-1.20;99.90;;;;;;4935086;28;20027;-60
2024/01/29 06:24:14;;;;;;;9.35;5.32;;;-1.20;99.90;;;;;;4949237;28;20121;-63
2024/01/29 06:26:41;;;;;;;8.57;6.03;;;-1.10;99.90;;;;;;4952724;28;20071;-62
2024/01/29 06:29:06;;;;;;;7.88;5.35;;;-1.10;99.90;;;;;;4952269;28;20023;-64
2024/01/29 06:31:32;;;;;;;7.28;4.70;;;-1.20;99.90;;;;;;4951422;28;20034;-63
2024/01/29 06:33:58;;;;;;;10.02;5.05;;;-1.20;99.90;;;;;;4958579;28;20064;-61
2024/01/29 06:36:24;;;;;;;8.30;5.20;;;-1.20;99.90;;;;;;4953427;28;20751;-62
2024/01/29 06:38:50;;;;;;;11.40;5.18;;;-1.20;99.90;;;;;;4954976;28;20023;-62
2024/01/29 06:41:23;;;;;;;8.45;5.80;;;-1.20;99.90;;;;;;4954032;28;20435;-63
2024/01/29 06:43:53;;;;;;;7.63;4.72;;;-1.20;99.90;;;;;;4958114;28;20032;-61
2024/01/29 06:46:19;;;;;;;9.15;5.28;;;-1.20;99.90;;;;;;4967798;28;20083;-62
2024/01/29 06:48:45;;;;;;;10.43;5.03;;;-1.20;99.90;;;;;;4946106;28;20027;-62
2024/01/29 06:51:11;;;;;;;10.38;5.88;;;-1.20;99.90;;;;;;4935571;29;20023;-64
2024/01/29 06:53:37;;;;;;;9.05;5.13;;;-1.20;99.90;;;;;;4946422;28;20031;-63
2024/01/29 06:56:04;;;;;;;6.95;5.45;;;-1.20;99.90;;;;;;4950156;28;20046;-61
2024/01/29 06:58:37;;;;;;;7.43;5.13;;;-1.20;99.90;;;;;;4938961;28;20082;-60
2024/01/29 07:01:04;;;;;;;8.70;5.78;;;-1.20;99.90;;;;;;4949569;28;20036;-62
2024/01/29 07:03:29;;;;;;;5.82;4.20;;;-1.20;99.90;;;;;;4951471;28;20097;-62
2024/01/29 07:05:57;;;;;;;8.88;5.30;;;-1.20;99.90;;;;;;4949087;28;20507;-62
2024/01/29 07:08:23;;;;;;;10.73;5.03;;;-1.20;99.90;;;;;;4948505;28;20023;-62
2024/01/29 07:10:48;;;;;;;8.68;5.30;;;-1.20;99.90;;;;;;4955440;28;20051;-63
2024/01/29 07:13:14;;;;;;;9.90;4.78;;;-1.10;99.90;;;;;;4958505;28;20494;-61
2024/01/29 07:15:41;;;;;;;7.38;5.20;;;-1.10;99.90;;;;;;4935058;28;20024;-62
2024/01/29 07:18:06;;;;;;;6.35;4.95;;;-1.00;99.90;;;;;;4936650;28;20145;-64
2024/01/29 07:20:38;;;;;;;6.85;5.00;;;-1.00;99.90;;;;;;4949299;28;20159;-60
2024/01/29 07:23:08;;;;;;;11.98;5.72;;;-1.00;99.90;;;;;;4953013;28;20086;-63
2024/01/29 07:25:40;;;;;;;8.48;4.55;;;-1.00;99.90;;;;;;4956476;28;20073;-61
2024/01/29 07:28:06;;;;;;;9.02;4.75;;;-1.00;99.90;;;;;;4937287;28;20106;-63
2024/01/29 07:30:32;;;;;;;11.98;5.70;;;-1.00;99.90;;;;;;4939618;28;20051;-63
2024/01/29 07:32:58;;;;;;;8.45;5.45;;;-0.90;99.90;;;;;;4947025;28;20036;-64
2024/01/29 07:35:24;;;;;;;12.43;5.13;;;-0.90;99.90;;;;;;4947930;28;20035;-63
2024/01/29 07:37:50;;;;;;;6.57;5.18;;;-0.90;99.90;;;;;;4946826;28;20043;-60
2024/01/29 07:40:17;;;;;;;8.95;5.63;;;-0.80;99.90;;;;;;4957328;28;20023;-60
2024/01/29 07:42:43;;;;;;;7.65;5.13;;;-0.70;99.90;;;;;;4965767;28;20039;-61
2024/01/29 07:45:09;;;;;;;8.77;5.78;;;-0.60;99.90;;;;;;4934067;28;20122;-62
2024/01/29 07:47:34;;;;;;;15.38;7.97;;;-0.50;99.90;;;;;;4934181;28;20594;-61
2024/01/29 07:50:01;;;;;;;8.70;5.40;;;-0.40;99.90;;;;;;4958140;28;20046;-60
2024/01/29 07:52:26;;;;;;;10.18;5.47;;;-0.20;99.90;;;;;;4927494;29;20039;-61
2024/01/29 07:54:52;;;;;;;6.13;4.60;;;-0.10;99.90;;;;;;4944316;28;20038;-60
2024/01/29 07:57:18;;;;;;;9.70;5.00;;;-0.10;99.90;;;;;;4950190;28;20121;-61
2024/01/29 07:59:45;;;;;;;10.20;5.10;;;0.00;99.90;;;;;;4951471;28;20028;-60
2024/01/29 08:02:12;;;;;;;8.55;5.82;;;0.00;99.90;;;;;;4953007;28;20023;-61
2024/01/29 08:04:37;;;;;;;6.07;4.95;;;0.10;99.90;;;;;;4954935;28;20039;-61
2024/01/29 08:07:03;;;;;;;5.05;4.47;;;0.20;99.90;;;;;;4955569;28;20039;-61
2024/01/29 08:09:29;;;;;;;9.75;4.78;;;0.20;99.90;;;;;;4948017;28;20043;-60
2024/01/29 08:11:55;;;;;;;8.63;4.40;;;0.30;99.90;;;;;;4944068;28;20036;-60
2024/01/29 08:14:21;;;;;;;9.00;4.70;;;0.40;99.90;;;;;;4955213;28;20031;-60
2024/01/29 08:16:47;;;;;;;4.88;4.13;;;0.50;99.90;;;;;;4950565;28;20098;-60
2024/01/29 08:19:13;;;;;;;5.90;4.55;;;0.60;99.90;;;;;;4950421;28;20062;-60
2024/01/29 08:21:38;;;;;;;8.60;4.63;;;0.70;99.90;;;;;;4949698;28;20376;-61
2024/01/29 08:24:05;;;;;;;8.57;4.93;;;0.90;99.90;;;;;;4944437;28;20043;-61
2024/01/29 08:26:31;;;;;;;8.48;4.78;;;1.00;99.90;;;;;;4943299;28;20031;-61
2024/01/29 08:28:57;;;;;;;8.63;4.25;;;1.10;99.90;;;;;;4962886;28;20050;-61
2024/01/29 08:31:26;;;;;;;7.47;3.63;;;1.20;99.90;;;;;;4949524;28;20035;-60
2024/01/29 08:33:52;;;;;;;7.72;3.78;;;1.30;99.90;;;;;;4950075;28;20047;-61
2024/01/29 08:36:20;;;;;;;6.35;3.88;;;1.50;99.90;;;;;;4949648;28;20031;-64
2024/01/29 08:38:46;;;;;;;11.48;3.78;;;1.60;99.90;;;;;;4948740;28;20029;-63
2024/01/29 08:41:13;;;;;;;7.18;3.50;;;1.70;99.90;;;;;;4946678;28;20027;-61
2024/01/29 08:43:39;;;;;;;5.97;4.65;;;1.80;99.90;;;;;;4954489;28;20046;-61
2024/01/29 08:46:05;;;;;;;4.78;3.20;;;1.90;99.90;;;;;;4944925;28;20030;-62
2024/01/29 08:48:31;;;;;;;5.15;3.53;;;2.10;99.90;;;;;;4945570;28;20039;-61
2024/01/29 08:50:57;;;;;;;6.03;3.30;;;2.20;99.90;;;;;;4949777;28;20064;-61
2024/01/29 08:53:23;;;;;;;6.97;3.42;;;2.30;99.90;;;;;;4945435;28;20436;-61
2024/01/29 08:55:48;;;;;;;7.32;3.72;;;2.40;99.90;;;;;;4944477;28;20138;-62
2024/01/29 08:58:15;;;;;;;5.25;3.80;;;2.40;99.90;;;;;;4942527;28;20043;-60
2024/01/29 09:00:40;;;;;;;6.38;3.22;;;2.50;99.90;;;;;;4948451;28;20027;-62
2024/01/29 09:03:06;;;;;;;7.25;3.75;;;2.60;99.90;;;;;;4949725;28;20098;-62
2024/01/29 09:05:31;;;;;;;4.90;3.13;;;2.60;99.90;;;;;;4948906;28;20605;-61
2024/01/29 09:07:57;;;;;;;5.80;3.25;;;2.70;99.90;;;;;;4948908;28;20436;-61
2024/01/29 09:10:23;;;;;;;6.80;3.65;;;2.80;99.90;;;;;;4948829;28;20739;-62
2024/01/29 09:12:48;;;;;;;4.95;3.40;;;2.90;99.90;;;;;;4947904;28;20063;-62
2024/01/29 09:15:14;;;;;;;6.68;3.28;;;2.90;99.90;;;;;;4948039;28;20592;-61
2024/01/29 09:17:40;;;;;;;5.55;3.58;;;3.00;99.90;;;;;;4950411;28;20031;-62
2024/01/29 09:20:09;;;;;;;5.28;3.22;;;3.10;99.90;;;;;;4951661;28;20035;-62
2024/01/29 09:22:35;;;;;;;6.15;3.13;;;3.20;99.90;;;;;;4955232;28;20170;-62
2024/01/29 09:25:01;;;;;;;5.45;2.70;;;3.40;99.90;;;;;;4948607;28;20738;-61
2024/01/29 09:27:26;;;;;;;4.28;2.72;;;3.80;99.90;;;;;;4948349;28;20046;-62
2024/01/29 09:29:52;;;;;;;4.57;2.60;;;4.30;99.90;;;;;;4954647;28;20050;-62
2024/01/29 09:32:17;;;;;;;4.10;3.20;;;4.90;99.90;;;;;;4946474;28;20039;-64
2024/01/29 09:34:43;;;;;;;4.97;2.70;;;5.40;99.90;;;;;;4953984;28;20395;-62
2024/01/29 09:37:09;;;;;;;5.35;3.20;;;5.70;99.90;;;;;;4950370;28;20118;-62
2024/01/29 09:39:34;;;;;;;5.25;3.00;;;6.10;99.90;;;;;;4955218;28;20114;-62
2024/01/29 09:42:04;;;;;;;5.72;2.83;;;6.20;99.90;;;;;;4958430;28;20494;-63
2024/01/29 09:44:38;;;;;;;4.90;2.60;;;6.40;99.90;;;;;;4951786;28;20038;-63
2024/01/29 09:47:05;;;;;;;5.10;2.30;;;6.40;99.90;;;;;;4958699;28;20030;-63
2024/01/29 09:49:36;;;;;;;4.22;2.78;;;6.60;99.90;;;;;;4945685;28;20023;-63
2024/01/29 09:52:06;;;;;;;5.85;2.80;;;6.80;99.90;;;;;;4950141;28;20443;-64
2024/01/29 09:54:34;;;;;;;4.07;2.60;;;6.80;99.90;;;;;;4944418;28;20384;-61
2024/01/29 09:56:59;;;;;;;4.13;2.42;;;6.90;99.90;;;;;;4949741;28;20035;-64
2024/01/29 09:59:25;;;;;;;5.22;2.67;;;6.80;99.90;;;;;;4952426;28;20637;-62
2024/01/29 10:01:52;;;;;;;4.75;2.72;;;6.80;99.90;;;;;;4950758;28;20088;-61
2024/01/29 10:04:19;;;;;;;6.22;3.72;;;6.90;99.90;;;;;;4952628;28;20035;-61
2024/01/29 10:06:44;;;;;;;4.00;2.85;;;6.80;99.90;;;;;;4954617;28;20041;-63
2024/01/29 10:09:11;;;;;;;4.93;3.20;;;6.90;99.90;;;;;;4955433;28;20023;-63
2024/01/29 10:11:39;;;;;;;6.13;3.08;;;6.90;99.90;;;;;;4952431;28;20019;-63
2024/01/29 10:14:06;;;;;;;3.80;2.30;;;6.90;99.90;;;;;;4944152;28;20055;-62
2024/01/29 10:16:32;;;;;;;6.07;2.88;;;6.90;99.90;;;;;;4944356;28;20078;-63
2024/01/29 10:19:02;;;;;;;6.38;3.83;;;6.80;99.90;;;;;;4947801;28;20027;-64
2024/01/29 10:21:36;;;;;;;3.67;2.60;;;6.70;99.90;;;;;;4949636;28;20054;-62
2024/01/29 10:24:02;;;;;;;4.32;2.80;;;6.70;99.90;;;;;;4950405;28;20483;-62
2024/01/29 10:26:28;;;;;;;4.97;2.88;;;6.80;99.90;;;;;;4949480;28;20039;-63
2024/01/29 10:29:00;;;;;;;3.40;2.20;;;7.00;99.90;;;;;;4950827;28;20150;-62
2024/01/29 10:31:26;;;;;;;6.45;3.72;;;7.10;99.90;;;;;;4948746;28;20039;-64
2024/01/29 10:33:52;;;;;;;6.15;3.10;;;7.10;99.90;;;;;;4946741;28;20097;-62
2024/01/29 10:36:17;;;;;;;4.88;2.63;;;7.20;99.90;;;;;;4951937;28;20034;-64
2024/01/29 10:38:46;;;;;;;4.00;2.83;;;7.30;99.90;;;;;;4952991;28;20019;-63
2024/01/29 10:41:16;;;;;;;5.47;2.65;;;7.20;99.90;;;;;;4947900;28;20031;-63
2024/01/29 10:43:46;;;;;;;6.78;3.42;;;7.10;99.90;;;;;;4954377;28;20034;-65
2024/01/29 10:46:16;;;;;;;5.63;3.55;;;7.30;99.90;;;;;;4951393;28;20075;-63
2024/01/29 10:48:43;;;;;;;4.65;3.92;;;7.40;99.90;;;;;;4952864;28;20034;-62
2024/01/29 10:51:12;;;;;;;5.50;3.05;;;7.30;99.90;;;;;;4952030;28;20035;-63
2024/01/29 10:53:39;;;;;;;4.93;2.88;;;7.40;99.90;;;;;;4947519;28;20027;-62
2024/01/29 10:56:06;;;;;;;4.75;3.30;;;7.50;99.90;;;;;;4945723;28;20031;-62
2024/01/29 10:58:32;;;;;;;5.45;2.97;;;7.80;99.90;;;;;;4950849;28;20027;-64
2024/01/29 11:01:00;;;;;;;5.90;3.45;;;7.90;99.90;;;;;;4950059;28;20110;-63
2024/01/29 11:03:26;;;;;;;4.10;2.35;;;7.90;99.90;;;;;;4953607;28;20420;-61
2024/01/29 11:05:59;;;;;;;4.88;3.20;;;7.80;99.90;;;;;;4949462;28;20147;-62
2024/01/29 11:08:31;;;;;;;3.97;2.72;;;7.70;99.90;;;;;;4949010;28;20034;-63
2024/01/29 11:10:58;;;;;;;4.15;2.40;;;7.80;99.90;;;;;;4946947;28;20027;-63
2024/01/29 11:13:26;;;;;;;4.00;2.58;;;7.90;99.90;;;;;;4951054;28;20514;-62
2024/01/29 11:15:51;;;;;;;4.53;2.83;;;7.90;99.90;;;;;;4944606;28;20554;-62
2024/01/29 11:18:17;;;;;;;4.30;2.35;;;8.00;99.90;;;;;;4942706;28;20023;-63
2024/01/29 11:20:43;;;;;;;6.22;3.65;;;7.80;99.90;;;;;;4952956;28;20537;-63
2024/01/29 11:23:11;;;;;;;4.30;2.63;;;7.90;99.90;;;;;;4944228;28;20039;-62
2024/01/29 11:25:37;;;;;;;4.90;3.45;;;8.10;99.90;;;;;;4944854;28;20023;-62
2024/01/29 11:28:06;;;;;;;6.85;2.95;;;8.10;99.90;;;;;;4944150;28;20043;-62
2024/01/29 11:30:32;;;;;;;5.72;2.97;;;8.30;99.90;;;;;;4949929;28;20122;-65
2024/01/29 11:33:16;;;;;;;5.68;2.67;;;8.30;99.90;;;;;;4953211;28;20122;-62
2024/01/29 11:35:42;;;;;;;8.93;3.30;;;8.30;99.90;;;;;;4948531;28;20059;-62
2024/01/29 11:38:08;;;;;;;5.22;2.83;;;8.30;99.90;;;;;;4948168;28;20563;-62
2024/01/29 11:40:38;;;;;;;4.20;2.88;;;8.20;99.90;;;;;;4947223;28;20023;-63
2024/01/29 11:43:08;;;;;;;5.18;2.88;;;8.10;99.90;;;;;;4948425;28;20054;-62
2024/01/29 11:45:36;;;;;;;3.35;2.40;;;8.00;99.90;;;;;;4948803;28;20058;-63
2024/01/29 11:48:01;;;;;;;4.20;2.97;;;8.10;99.90;;;;;;4950232;28;20035;-63
2024/01/29 11:50:28;;;;;;;3.92;3.00;;;8.10;99.90;;;;;;4947226;28;20035;-62
2024/01/29 11:52:54;;;;;;;4.75;3.03;;;8.00;99.90;;;;;;4943040;28;20036;-62
2024/01/29 11:55:23;;;;;;;5.25;2.72;;;8.00;99.90;;;;;;4949266;28;20026;-61
2024/01/29 11:57:52;;;;;;;8.93;4.15;;;8.00;99.90;;;;;;4946471;28;20092;-62
2024/01/29 12:00:19;;;;;;;5.15;2.63;;;8.10;99.90;;;;;;4946791;28;20072;-62
2024/01/29 12:02:48;;;;;;;8.82;2.90;;;8.10;99.90;;;;;;4957072;28;20046;-62
2024/01/29 12:05:18;;;;;;;4.63;2.72;;;8.10;99.90;;;;;;4946696;28;20455;-62
2024/01/29 12:07:48;;;;;;;6.07;2.88;;;8.10;99.90;;;;;;4945321;29;20054;-62
2024/01/29 12:10:17;;;;;;;5.47;3.47;;;8.10;99.90;;;;;;4949490;28;20109;-62
2024/01/29 12:12:42;;;;;;;5.78;2.80;;;8.20;99.90;;;;;;4945561;28;20428;-61
2024/01/29 12:15:11;;;;;;;3.75;2.38;;;8.20;99.90;;;;;;4948521;28;20024;-61
2024/01/29 12:17:39;;;;;;;5.28;2.88;;;8.30;99.90;;;;;;4943098;28;20725;-62
2024/01/29 12:20:05;;;;;;;5.72;3.08;;;8.30;99.20;;;;;;4942006;28;20071;-63
2024/01/29 12:22:32;;;;;;;5.43;3.65;;;8.50;99.90;;;;;;4954962;28;20071;-61
2024/01/29 12:24:59;;;;;;;3.63;2.80;;;8.90;99.90;;;;;;4953331;28;20086;-63
2024/01/29 12:27:24;;;;;;;4.82;2.92;;;9.20;99.90;;;;;;4947862;28;20841;-62
2024/01/29 12:29:51;;;;;;;6.05;3.00;;;9.30;99.90;;;;;;4946146;28;20086;-63
2024/01/29 12:32:20;;;;;;;3.65;2.35;;;9.30;99.90;;;;;;4949877;28;20505;-62
2024/01/29 12:34:50;;;;;;;4.10;2.83;;;9.40;99.90;;;;;;4948890;28;20059;-62
2024/01/29 12:37:22;;;;;;;5.88;3.08;;;9.50;99.90;;;;;;4947360;28;20023;-62
2024/01/29 12:39:52;;;;;;;6.00;2.65;;;9.60;98.20;;;;;;4948386;28;20499;-63
2024/01/29 12:42:18;;;;;;;6.03;3.10;;;9.60;99.60;;;;;;4944059;28;20039;-62
2024/01/29 12:44:44;;;;;;;8.38;2.60;;;9.70;99.90;;;;;;4940907;28;20279;-62